sensor_id;sensor_type;location;lat;lon;timestamp;P1;durP1;ratioP1;P2;durP2;ratioP2
10201;SDS011;5143;42.584;23.164;2023-04-03T00:00:33;11.73;;;5.40;;
10201;SDS011;5143;42.584;23.164;2023-04-03T00:03:00;6.47;;;3.57;;
10201;SDS011;5143;42.584;23.164;2023-04-03T00:05:27;10.73;;;4.33;;
10201;SDS011;5143;42.584;23.164;2023-04-03T00:07:54;10.93;;;4.83;;
10201;SDS011;5143;42.584;23.164;2023-04-03T00:10:20;10.33;;;5.10;;
10201;SDS011;5143;42.584;23.164;2023-04-03T00:12:47;8.20;;;4.17;;
10201;SDS011;5143;42.584;23.164;2023-04-03T00:15:14;14.10;;;6.13;;
10201;SDS011;5143;42.584;23.164;2023-04-03T00:17:42;12.27;;;4.50;;
10201;SDS011;5143;42.584;23.164;2023-04-03T00:20:10;10.63;;;4.47;;
10201;SDS011;5143;42.584;23.164;2023-04-03T00:22:37;12.30;;;4.37;;
10201;SDS011;5143;42.584;23.164;2023-04-03T00:25:04;9.23;;;4.73;;
10201;SDS011;5143;42.584;23.164;2023-04-03T00:27:31;10.83;;;4.97;;
10201;SDS011;5143;42.584;23.164;2023-04-03T00:29:58;9.77;;;4.43;;
10201;SDS011;5143;42.584;23.164;2023-04-03T00:32:25;12.13;;;4.70;;
10201;SDS011;5143;42.584;23.164;2023-04-03T00:34:53;9.37;;;3.83;;
10201;SDS011;5143;42.584;23.164;2023-04-03T00:37:20;9.57;;;4.10;;
10201;SDS011;5143;42.584;23.164;2023-04-03T00:39:47;6.23;;;3.53;;
10201;SDS011;5143;42.584;23.164;2023-04-03T00:42:14;6.83;;;3.63;;
10201;SDS011;5143;42.584;23.164;2023-04-03T00:47:54;6.80;;;3.40;;
10201;SDS011;5143;42.584;23.164;2023-04-03T00:50:25;7.07;;;3.43;;
10201;SDS011;5143;42.584;23.164;2023-04-03T00:52:53;7.33;;;2.97;;
10201;SDS011;5143;42.584;23.164;2023-04-03T00:55:21;8.17;;;3.70;;
10201;SDS011;5143;42.584;23.164;2023-04-03T00:57:49;8.17;;;3.37;;
10201;SDS011;5143;42.584;23.164;2023-04-03T01:00:19;9.00;;;3.00;;
10201;SDS011;5143;42.584;23.164;2023-04-03T01:02:47;6.13;;;2.50;;
10201;SDS011;5143;42.584;23.164;2023-04-03T01:05:14;10.20;;;3.20;;
10201;SDS011;5143;42.584;23.164;2023-04-03T01:07:44;5.57;;;2.70;;
10201;SDS011;5143;42.584;23.164;2023-04-03T01:10:12;7.57;;;3.00;;
10201;SDS011;5143;42.584;23.164;2023-04-03T01:12:41;5.67;;;2.60;;
10201;SDS011;5143;42.584;23.164;2023-04-03T01:15:11;7.00;;;3.20;;
10201;SDS011;5143;42.584;23.164;2023-04-03T01:17:40;7.43;;;3.47;;
10201;SDS011;5143;42.584;23.164;2023-04-03T01:23:14;9.70;;;3.30;;
10201;SDS011;5143;42.584;23.164;2023-04-03T01:25:52;5.33;;;3.00;;
10201;SDS011;5143;42.584;23.164;2023-04-03T01:28:21;12.00;;;2.70;;
10201;SDS011;5143;42.584;23.164;2023-04-03T01:30:50;5.07;;;2.83;;
10201;SDS011;5143;42.584;23.164;2023-04-03T01:33:25;7.50;;;2.87;;
10201;SDS011;5143;42.584;23.164;2023-04-03T01:35:52;6.40;;;2.93;;
10201;SDS011;5143;42.584;23.164;2023-04-03T01:38:19;6.30;;;2.67;;
10201;SDS011;5143;42.584;23.164;2023-04-03T01:40:46;6.83;;;3.60;;
10201;SDS011;5143;42.584;23.164;2023-04-03T01:43:13;8.57;;;3.57;;
10201;SDS011;5143;42.584;23.164;2023-04-03T01:45:39;6.33;;;3.00;;
10201;SDS011;5143;42.584;23.164;2023-04-03T01:48:06;10.20;;;3.77;;
10201;SDS011;5143;42.584;23.164;2023-04-03T01:50:34;6.70;;;3.30;;
10201;SDS011;5143;42.584;23.164;2023-04-03T01:53:01;9.83;;;4.30;;
10201;SDS011;5143;42.584;23.164;2023-04-03T01:55:28;7.77;;;3.50;;
10201;SDS011;5143;42.584;23.164;2023-04-03T01:57:55;12.03;;;3.87;;
10201;SDS011;5143;42.584;23.164;2023-04-03T02:00:22;7.73;;;3.70;;
10201;SDS011;5143;42.584;23.164;2023-04-03T02:02:49;8.70;;;2.77;;
10201;SDS011;5143;42.584;23.164;2023-04-03T02:05:15;5.00;;;3.00;;
10201;SDS011;5143;42.584;23.164;2023-04-03T02:07:44;5.20;;;2.83;;
10201;SDS011;5143;42.584;23.164;2023-04-03T02:10:11;4.60;;;2.03;;
10201;SDS011;5143;42.584;23.164;2023-04-03T02:12:38;4.50;;;2.40;;
10201;SDS011;5143;42.584;23.164;2023-04-03T02:15:06;5.47;;;3.00;;
10201;SDS011;5143;42.584;23.164;2023-04-03T02:17:34;5.70;;;2.70;;
10201;SDS011;5143;42.584;23.164;2023-04-03T02:20:01;3.90;;;2.50;;
10201;SDS011;5143;42.584;23.164;2023-04-03T02:22:29;5.53;;;2.53;;
10201;SDS011;5143;42.584;23.164;2023-04-03T02:24:57;12.77;;;2.50;;
10201;SDS011;5143;42.584;23.164;2023-04-03T02:27:24;4.37;;;2.43;;
10201;SDS011;5143;42.584;23.164;2023-04-03T02:29:51;9.80;;;3.03;;
10201;SDS011;5143;42.584;23.164;2023-04-03T02:32:18;9.20;;;2.60;;
10201;SDS011;5143;42.584;23.164;2023-04-03T02:34:45;4.27;;;2.37;;
10201;SDS011;5143;42.584;23.164;2023-04-03T02:37:12;5.07;;;2.93;;
10201;SDS011;5143;42.584;23.164;2023-04-03T02:39:38;3.87;;;2.57;;
10201;SDS011;5143;42.584;23.164;2023-04-03T02:42:06;4.73;;;2.10;;
10201;SDS011;5143;42.584;23.164;2023-04-03T02:44:33;5.83;;;2.83;;
10201;SDS011;5143;42.584;23.164;2023-04-03T02:47:00;5.20;;;2.57;;
10201;SDS011;5143;42.584;23.164;2023-04-03T02:49:28;6.80;;;2.40;;
10201;SDS011;5143;42.584;23.164;2023-04-03T02:51:55;6.13;;;2.47;;
10201;SDS011;5143;42.584;23.164;2023-04-03T02:54:22;7.63;;;3.27;;
10201;SDS011;5143;42.584;23.164;2023-04-03T02:56:52;7.20;;;3.40;;
10201;SDS011;5143;42.584;23.164;2023-04-03T02:59:21;13.30;;;3.70;;
10201;SDS011;5143;42.584;23.164;2023-04-03T03:01:48;8.63;;;3.93;;
10201;SDS011;5143;42.584;23.164;2023-04-03T03:04:15;12.23;;;4.43;;
10201;SDS011;5143;42.584;23.164;2023-04-03T03:06:41;8.30;;;3.67;;
10201;SDS011;5143;42.584;23.164;2023-04-03T03:09:08;7.17;;;3.20;;
10201;SDS011;5143;42.584;23.164;2023-04-03T03:11:35;8.30;;;3.10;;
10201;SDS011;5143;42.584;23.164;2023-04-03T03:14:01;7.43;;;3.30;;
10201;SDS011;5143;42.584;23.164;2023-04-03T03:16:30;9.37;;;3.50;;
10201;SDS011;5143;42.584;23.164;2023-04-03T03:18:57;6.40;;;3.27;;
10201;SDS011;5143;42.584;23.164;2023-04-03T03:21:23;8.97;;;3.50;;
10201;SDS011;5143;42.584;23.164;2023-04-03T03:23:51;10.90;;;4.00;;
10201;SDS011;5143;42.584;23.164;2023-04-03T03:26:18;8.40;;;3.63;;
10201;SDS011;5143;42.584;23.164;2023-04-03T03:28:44;6.90;;;2.97;;
10201;SDS011;5143;42.584;23.164;2023-04-03T03:31:11;6.23;;;3.33;;
10201;SDS011;5143;42.584;23.164;2023-04-03T03:33:40;4.90;;;3.30;;
10201;SDS011;5143;42.584;23.164;2023-04-03T03:36:07;5.00;;;2.77;;
10201;SDS011;5143;42.584;23.164;2023-04-03T03:38:34;7.83;;;2.80;;
10201;SDS011;5143;42.584;23.164;2023-04-03T03:41:01;7.03;;;2.80;;
10201;SDS011;5143;42.584;23.164;2023-04-03T03:43:28;6.97;;;4.00;;
10201;SDS011;5143;42.584;23.164;2023-04-03T03:45:55;13.80;;;3.60;;
10201;SDS011;5143;42.584;23.164;2023-04-03T03:48:22;12.47;;;3.80;;
10201;SDS011;5143;42.584;23.164;2023-04-03T03:50:51;5.77;;;3.50;;
10201;SDS011;5143;42.584;23.164;2023-04-03T03:53:18;12.67;;;3.20;;
10201;SDS011;5143;42.584;23.164;2023-04-03T03:55:45;7.37;;;3.80;;
10201;SDS011;5143;42.584;23.164;2023-04-03T03:58:12;6.37;;;4.03;;
10201;SDS011;5143;42.584;23.164;2023-04-03T04:00:39;11.33;;;4.10;;
10201;SDS011;5143;42.584;23.164;2023-04-03T04:03:05;7.97;;;4.50;;
10201;SDS011;5143;42.584;23.164;2023-04-03T04:05:32;11.20;;;4.50;;
10201;SDS011;5143;42.584;23.164;2023-04-03T04:08:01;8.60;;;4.13;;
10201;SDS011;5143;42.584;23.164;2023-04-03T04:10:27;11.43;;;3.67;;
10201;SDS011;5143;42.584;23.164;2023-04-03T04:12:54;6.10;;;3.40;;
10201;SDS011;5143;42.584;23.164;2023-04-03T04:15:21;8.43;;;3.10;;
10201;SDS011;5143;42.584;23.164;2023-04-03T04:17:48;7.50;;;3.50;;
10201;SDS011;5143;42.584;23.164;2023-04-03T04:20:15;8.10;;;4.13;;
10201;SDS011;5143;42.584;23.164;2023-04-03T04:22:42;7.73;;;4.23;;
10201;SDS011;5143;42.584;23.164;2023-04-03T04:25:11;14.73;;;4.30;;
10201;SDS011;5143;42.584;23.164;2023-04-03T04:27:37;13.40;;;3.93;;
10201;SDS011;5143;42.584;23.164;2023-04-03T04:30:05;16.77;;;4.83;;
10201;SDS011;5143;42.584;23.164;2023-04-03T04:32:32;8.77;;;4.80;;
10201;SDS011;5143;42.584;23.164;2023-04-03T04:34:59;13.53;;;5.30;;
10201;SDS011;5143;42.584;23.164;2023-04-03T04:37:26;7.87;;;4.10;;
10201;SDS011;5143;42.584;23.164;2023-04-03T04:39:53;6.43;;;4.30;;
10201;SDS011;5143;42.584;23.164;2023-04-03T04:42:21;11.33;;;4.93;;
10201;SDS011;5143;42.584;23.164;2023-04-03T04:44:48;10.87;;;5.00;;
10201;SDS011;5143;42.584;23.164;2023-04-03T04:47:16;5.33;;;3.80;;
10201;SDS011;5143;42.584;23.164;2023-04-03T04:49:43;12.83;;;4.47;;
10201;SDS011;5143;42.584;23.164;2023-04-03T04:52:10;7.63;;;3.87;;
10201;SDS011;5143;42.584;23.164;2023-04-03T04:54:37;9.20;;;4.57;;
10201;SDS011;5143;42.584;23.164;2023-04-03T04:57:04;12.00;;;4.97;;
10201;SDS011;5143;42.584;23.164;2023-04-03T04:59:32;10.37;;;4.70;;
10201;SDS011;5143;42.584;23.164;2023-04-03T05:01:59;18.13;;;5.03;;
10201;SDS011;5143;42.584;23.164;2023-04-03T05:04:25;13.50;;;4.47;;
10201;SDS011;5143;42.584;23.164;2023-04-03T05:06:52;10.83;;;4.20;;
10201;SDS011;5143;42.584;23.164;2023-04-03T05:09:19;10.13;;;4.67;;
10201;SDS011;5143;42.584;23.164;2023-04-03T05:11:46;12.77;;;4.07;;
10201;SDS011;5143;42.584;23.164;2023-04-03T05:14:14;19.90;;;5.90;;
10201;SDS011;5143;42.584;23.164;2023-04-03T05:16:42;17.27;;;6.17;;
10201;SDS011;5143;42.584;23.164;2023-04-03T05:19:08;17.93;;;6.20;;
10201;SDS011;5143;42.584;23.164;2023-04-03T05:21:35;22.37;;;10.87;;
10201;SDS011;5143;42.584;23.164;2023-04-03T05:24:03;17.87;;;9.30;;
10201;SDS011;5143;42.584;23.164;2023-04-03T05:26:34;25.20;;;10.23;;
10201;SDS011;5143;42.584;23.164;2023-04-03T05:29:01;25.27;;;9.73;;
10201;SDS011;5143;42.584;23.164;2023-04-03T05:31:28;17.83;;;10.00;;
10201;SDS011;5143;42.584;23.164;2023-04-03T05:33:57;20.90;;;10.53;;
10201;SDS011;5143;42.584;23.164;2023-04-03T05:36:24;20.90;;;11.53;;
10201;SDS011;5143;42.584;23.164;2023-04-03T05:38:51;22.87;;;11.40;;
10201;SDS011;5143;42.584;23.164;2023-04-03T05:41:21;19.57;;;8.70;;
10201;SDS011;5143;42.584;23.164;2023-04-03T05:43:48;27.60;;;9.40;;
10201;SDS011;5143;42.584;23.164;2023-04-03T05:46:16;19.10;;;9.33;;
10201;SDS011;5143;42.584;23.164;2023-04-03T05:48:44;21.93;;;8.20;;
10201;SDS011;5143;42.584;23.164;2023-04-03T05:51:14;18.93;;;8.23;;
10201;SDS011;5143;42.584;23.164;2023-04-03T05:53:43;16.60;;;8.67;;
10201;SDS011;5143;42.584;23.164;2023-04-03T05:56:10;13.37;;;9.27;;
10201;SDS011;5143;42.584;23.164;2023-04-03T05:58:37;20.57;;;6.63;;
10201;SDS011;5143;42.584;23.164;2023-04-03T06:01:05;17.50;;;7.23;;
10201;SDS011;5143;42.584;23.164;2023-04-03T06:03:32;23.10;;;7.67;;
10201;SDS011;5143;42.584;23.164;2023-04-03T06:06:02;15.93;;;7.27;;
10201;SDS011;5143;42.584;23.164;2023-04-03T06:08:31;11.37;;;5.73;;
10201;SDS011;5143;42.584;23.164;2023-04-03T06:10:59;10.07;;;6.20;;
10201;SDS011;5143;42.584;23.164;2023-04-03T06:13:27;12.20;;;5.43;;
10201;SDS011;5143;42.584;23.164;2023-04-03T06:15:53;11.37;;;5.70;;
10201;SDS011;5143;42.584;23.164;2023-04-03T06:18:20;13.20;;;8.20;;
10201;SDS011;5143;42.584;23.164;2023-04-03T06:20:47;22.20;;;8.47;;
10201;SDS011;5143;42.584;23.164;2023-04-03T06:23:14;25.60;;;10.70;;
10201;SDS011;5143;42.584;23.164;2023-04-03T06:25:42;25.53;;;9.37;;
10201;SDS011;5143;42.584;23.164;2023-04-03T06:28:09;22.93;;;9.13;;
10201;SDS011;5143;42.584;23.164;2023-04-03T06:30:36;16.93;;;8.57;;
10201;SDS011;5143;42.584;23.164;2023-04-03T06:33:03;27.87;;;9.13;;
10201;SDS011;5143;42.584;23.164;2023-04-03T06:35:29;17.27;;;8.53;;
10201;SDS011;5143;42.584;23.164;2023-04-03T06:37:56;30.87;;;9.03;;
10201;SDS011;5143;42.584;23.164;2023-04-03T06:40:24;26.50;;;9.87;;
10201;SDS011;5143;42.584;23.164;2023-04-03T06:42:53;21.37;;;9.97;;
10201;SDS011;5143;42.584;23.164;2023-04-03T06:45:20;24.77;;;9.50;;
10201;SDS011;5143;42.584;23.164;2023-04-03T06:47:47;21.43;;;9.47;;
10201;SDS011;5143;42.584;23.164;2023-04-03T06:50:14;15.27;;;7.97;;
10201;SDS011;5143;42.584;23.164;2023-04-03T06:52:41;17.80;;;8.43;;
10201;SDS011;5143;42.584;23.164;2023-04-03T06:55:09;13.83;;;7.77;;
10201;SDS011;5143;42.584;23.164;2023-04-03T06:57:36;18.07;;;8.03;;
10201;SDS011;5143;42.584;23.164;2023-04-03T07:00:07;15.87;;;8.10;;
10201;SDS011;5143;42.584;23.164;2023-04-03T07:02:35;20.43;;;8.53;;
10201;SDS011;5143;42.584;23.164;2023-04-03T07:05:02;21.13;;;7.37;;
10201;SDS011;5143;42.584;23.164;2023-04-03T07:07:30;18.20;;;7.37;;
10201;SDS011;5143;42.584;23.164;2023-04-03T07:09:59;26.47;;;6.97;;
10201;SDS011;5143;42.584;23.164;2023-04-03T07:12:25;13.40;;;6.40;;
10201;SDS011;5143;42.584;23.164;2023-04-03T07:14:52;12.80;;;5.53;;
10201;SDS011;5143;42.584;23.164;2023-04-03T07:17:21;13.47;;;5.80;;
10201;SDS011;5143;42.584;23.164;2023-04-03T07:19:48;13.03;;;6.00;;
10201;SDS011;5143;42.584;23.164;2023-04-03T07:22:15;14.67;;;5.33;;
10201;SDS011;5143;42.584;23.164;2023-04-03T07:24:41;17.77;;;7.27;;
10201;SDS011;5143;42.584;23.164;2023-04-03T07:27:08;13.10;;;6.30;;
10201;SDS011;5143;42.584;23.164;2023-04-03T07:29:36;17.00;;;6.07;;
10201;SDS011;5143;42.584;23.164;2023-04-03T07:32:03;13.50;;;5.07;;
10201;SDS011;5143;42.584;23.164;2023-04-03T07:34:32;13.67;;;5.40;;
10201;SDS011;5143;42.584;23.164;2023-04-03T07:36:59;12.97;;;5.20;;
10201;SDS011;5143;42.584;23.164;2023-04-03T07:39:26;14.03;;;5.03;;
10201;SDS011;5143;42.584;23.164;2023-04-03T07:41:53;18.07;;;5.63;;
10201;SDS011;5143;42.584;23.164;2023-04-03T07:44:21;12.47;;;4.73;;
10201;SDS011;5143;42.584;23.164;2023-04-03T07:46:48;15.77;;;4.97;;
10201;SDS011;5143;42.584;23.164;2023-04-03T07:49:15;8.37;;;4.33;;
10201;SDS011;5143;42.584;23.164;2023-04-03T07:51:44;11.37;;;4.90;;
10201;SDS011;5143;42.584;23.164;2023-04-03T07:54:11;11.43;;;4.00;;
10201;SDS011;5143;42.584;23.164;2023-04-03T07:56:38;13.60;;;4.77;;
10201;SDS011;5143;42.584;23.164;2023-04-03T07:59:07;20.73;;;5.43;;
10201;SDS011;5143;42.584;23.164;2023-04-03T08:01:35;13.37;;;5.33;;
10201;SDS011;5143;42.584;23.164;2023-04-03T08:04:02;10.27;;;5.13;;
10201;SDS011;5143;42.584;23.164;2023-04-03T08:06:30;11.37;;;4.87;;
10201;SDS011;5143;42.584;23.164;2023-04-03T08:09:02;10.83;;;6.47;;
10201;SDS011;5143;42.584;23.164;2023-04-03T08:11:29;20.47;;;5.30;;
10201;SDS011;5143;42.584;23.164;2023-04-03T08:13:56;12.50;;;6.87;;
10201;SDS011;5143;42.584;23.164;2023-04-03T08:16:23;7.43;;;3.77;;
10201;SDS011;5143;42.584;23.164;2023-04-03T08:18:52;18.10;;;4.57;;
10201;SDS011;5143;42.584;23.164;2023-04-03T08:21:18;7.67;;;4.30;;
10201;SDS011;5143;42.584;23.164;2023-04-03T08:23:47;11.10;;;4.93;;
10201;SDS011;5143;42.584;23.164;2023-04-03T08:26:18;10.60;;;3.93;;
10201;SDS011;5143;42.584;23.164;2023-04-03T08:28:47;13.57;;;5.00;;
10201;SDS011;5143;42.584;23.164;2023-04-03T08:31:15;5.33;;;2.57;;
10201;SDS011;5143;42.584;23.164;2023-04-03T08:33:43;5.80;;;2.30;;
10201;SDS011;5143;42.584;23.164;2023-04-03T08:36:18;7.07;;;2.20;;
10201;SDS011;5143;42.584;23.164;2023-04-03T08:38:47;2.53;;;1.73;;
10201;SDS011;5143;42.584;23.164;2023-04-03T08:41:18;3.60;;;1.97;;
10201;SDS011;5143;42.584;23.164;2023-04-03T08:43:56;2.23;;;1.40;;
10201;SDS011;5143;42.584;23.164;2023-04-03T08:46:32;2.43;;;1.70;;
10201;SDS011;5143;42.584;23.164;2023-04-03T08:49:07;8.30;;;2.13;;
10201;SDS011;5143;42.584;23.164;2023-04-03T08:51:40;3.53;;;2.10;;
10201;SDS011;5143;42.584;23.164;2023-04-03T08:54:18;3.47;;;2.23;;
10201;SDS011;5143;42.584;23.164;2023-04-03T08:56:52;2.87;;;2.10;;
10201;SDS011;5143;42.584;23.164;2023-04-03T08:59:23;4.70;;;2.07;;
10201;SDS011;5143;42.584;23.164;2023-04-03T09:01:54;5.03;;;2.03;;
10201;SDS011;5143;42.584;23.164;2023-04-03T09:04:24;6.53;;;2.43;;
10201;SDS011;5143;42.584;23.164;2023-04-03T09:06:54;5.87;;;2.50;;
10201;SDS011;5143;42.584;23.164;2023-04-03T09:09:27;5.53;;;2.50;;
10201;SDS011;5143;42.584;23.164;2023-04-03T09:12:05;3.83;;;2.50;;
10201;SDS011;5143;42.584;23.164;2023-04-03T09:14:43;7.87;;;2.40;;
10201;SDS011;5143;42.584;23.164;2023-04-03T09:17:20;6.77;;;2.93;;
10201;SDS011;5143;42.584;23.164;2023-04-03T09:19:56;4.27;;;2.53;;
10201;SDS011;5143;42.584;23.164;2023-04-03T09:22:31;3.97;;;2.50;;
10201;SDS011;5143;42.584;23.164;2023-04-03T09:25:05;3.30;;;2.50;;
10201;SDS011;5143;42.584;23.164;2023-04-03T09:27:38;7.30;;;2.67;;
10201;SDS011;5143;42.584;23.164;2023-04-03T09:30:05;5.13;;;2.60;;
10201;SDS011;5143;42.584;23.164;2023-04-03T09:32:39;9.93;;;2.93;;
10201;SDS011;5143;42.584;23.164;2023-04-03T09:35:13;6.53;;;2.50;;
10201;SDS011;5143;42.584;23.164;2023-04-03T09:37:45;8.33;;;3.53;;
10201;SDS011;5143;42.584;23.164;2023-04-03T09:40:32;5.77;;;3.20;;
10201;SDS011;5143;42.584;23.164;2023-04-03T09:45:51;13.67;;;3.83;;
10201;SDS011;5143;42.584;23.164;2023-04-03T09:48:19;6.63;;;2.47;;
10201;SDS011;5143;42.584;23.164;2023-04-03T09:50:58;12.53;;;3.60;;
10201;SDS011;5143;42.584;23.164;2023-04-03T09:53:28;3.53;;;2.90;;
10201;SDS011;5143;42.584;23.164;2023-04-03T09:55:57;5.30;;;2.70;;
10201;SDS011;5143;42.584;23.164;2023-04-03T09:58:28;4.67;;;2.57;;
10201;SDS011;5143;42.584;23.164;2023-04-03T10:00:59;6.47;;;2.50;;
10201;SDS011;5143;42.584;23.164;2023-04-03T10:03:29;8.30;;;2.40;;
10201;SDS011;5143;42.584;23.164;2023-04-03T10:05:57;3.00;;;2.23;;
10201;SDS011;5143;42.584;23.164;2023-04-03T10:08:27;10.30;;;2.70;;
10201;SDS011;5143;42.584;23.164;2023-04-03T10:11:05;4.43;;;2.50;;
10201;SDS011;5143;42.584;23.164;2023-04-03T10:13:36;3.40;;;1.50;;
10201;SDS011;5143;42.584;23.164;2023-04-03T10:16:17;1.60;;;1.10;;
10201;SDS011;5143;42.584;23.164;2023-04-03T10:18:48;2.03;;;1.10;;
10201;SDS011;5143;42.584;23.164;2023-04-03T10:21:20;6.10;;;1.37;;
10201;SDS011;5143;42.584;23.164;2023-04-03T10:24:00;2.20;;;1.03;;
10201;SDS011;5143;42.584;23.164;2023-04-03T10:26:37;1.33;;;0.90;;
10201;SDS011;5143;42.584;23.164;2023-04-03T10:29:15;3.00;;;1.03;;
10201;SDS011;5143;42.584;23.164;2023-04-03T10:31:52;2.43;;;0.90;;
10201;SDS011;5143;42.584;23.164;2023-04-03T10:34:28;3.10;;;0.97;;
10201;SDS011;5143;42.584;23.164;2023-04-03T10:37:01;1.60;;;1.00;;
10201;SDS011;5143;42.584;23.164;2023-04-03T10:39:39;1.87;;;1.10;;
10201;SDS011;5143;42.584;23.164;2023-04-03T10:42:14;1.03;;;0.67;;
10201;SDS011;5143;42.584;23.164;2023-04-03T10:44:52;2.83;;;1.00;;
10201;SDS011;5143;42.584;23.164;2023-04-03T10:47:29;2.70;;;1.40;;
10201;SDS011;5143;42.584;23.164;2023-04-03T10:50:02;2.80;;;1.20;;
10201;SDS011;5143;42.584;23.164;2023-04-03T10:52:41;3.20;;;1.20;;
10201;SDS011;5143;42.584;23.164;2023-04-03T10:55:17;1.60;;;1.03;;
10201;SDS011;5143;42.584;23.164;2023-04-03T10:57:56;1.63;;;1.20;;
10201;SDS011;5143;42.584;23.164;2023-04-03T11:00:29;3.47;;;1.40;;
10201;SDS011;5143;42.584;23.164;2023-04-03T11:03:04;2.23;;;1.30;;
10201;SDS011;5143;42.584;23.164;2023-04-03T11:05:36;2.60;;;1.57;;
10201;SDS011;5143;42.584;23.164;2023-04-03T11:08:07;3.87;;;2.00;;
10201;SDS011;5143;42.584;23.164;2023-04-03T11:10:44;7.17;;;2.00;;
10201;SDS011;5143;42.584;23.164;2023-04-03T11:13:13;1.93;;;1.27;;
10201;SDS011;5143;42.584;23.164;2023-04-03T11:15:49;2.13;;;1.00;;
10201;SDS011;5143;42.584;23.164;2023-04-03T11:18:19;3.37;;;2.00;;
10201;SDS011;5143;42.584;23.164;2023-04-03T11:20:50;2.93;;;1.80;;
10201;SDS011;5143;42.584;23.164;2023-04-03T11:23:26;5.03;;;1.40;;
10201;SDS011;5143;42.584;23.164;2023-04-03T11:25:56;2.53;;;1.50;;
10201;SDS011;5143;42.584;23.164;2023-04-03T11:28:32;2.33;;;1.43;;
10201;SDS011;5143;42.584;23.164;2023-04-03T11:31:02;9.77;;;1.47;;
10201;SDS011;5143;42.584;23.164;2023-04-03T11:33:41;1.47;;;1.03;;
10201;SDS011;5143;42.584;23.164;2023-04-03T11:36:18;1.30;;;1.00;;
10201;SDS011;5143;42.584;23.164;2023-04-03T11:38:51;1.77;;;0.80;;
10201;SDS011;5143;42.584;23.164;2023-04-03T11:41:24;1.53;;;1.17;;
10201;SDS011;5143;42.584;23.164;2023-04-03T11:43:58;2.87;;;1.10;;
10201;SDS011;5143;42.584;23.164;2023-04-03T11:55:45;2.60;;;1.20;;
10201;SDS011;5143;42.584;23.164;2023-04-03T11:58:19;2.33;;;1.40;;
10201;SDS011;5143;42.584;23.164;2023-04-03T12:09:56;2.63;;;1.83;;
10201;SDS011;5143;42.584;23.164;2023-04-03T12:12:35;1.73;;;1.30;;
10201;SDS011;5143;42.584;23.164;2023-04-03T12:15:25;1.57;;;1.17;;
10201;SDS011;5143;42.584;23.164;2023-04-03T12:24:25;1.50;;;0.93;;
10201;SDS011;5143;42.584;23.164;2023-04-03T12:27:03;1.93;;;1.40;;
10201;SDS011;5143;42.584;23.164;2023-04-03T12:29:37;2.00;;;1.20;;
10201;SDS011;5143;42.584;23.164;2023-04-03T12:32:13;2.43;;;1.50;;
10201;SDS011;5143;42.584;23.164;2023-04-03T12:34:55;2.50;;;1.40;;
10201;SDS011;5143;42.584;23.164;2023-04-03T12:37:39;2.43;;;1.30;;
10201;SDS011;5143;42.584;23.164;2023-04-03T12:40:21;1.70;;;1.10;;
10201;SDS011;5143;42.584;23.164;2023-04-03T12:43:01;2.07;;;1.47;;
10201;SDS011;5143;42.584;23.164;2023-04-03T12:45:40;2.10;;;1.60;;
10201;SDS011;5143;42.584;23.164;2023-04-03T12:48:12;3.27;;;1.57;;
10201;SDS011;5143;42.584;23.164;2023-04-03T12:50:43;2.33;;;1.50;;
10201;SDS011;5143;42.584;23.164;2023-04-03T12:53:12;2.67;;;1.50;;
10201;SDS011;5143;42.584;23.164;2023-04-03T12:55:42;3.63;;;1.20;;
10201;SDS011;5143;42.584;23.164;2023-04-03T12:58:14;1.23;;;0.63;;
10201;SDS011;5143;42.584;23.164;2023-04-03T13:00:45;3.10;;;1.73;;
10201;SDS011;5143;42.584;23.164;2023-04-03T13:03:20;2.33;;;1.40;;
10201;SDS011;5143;42.584;23.164;2023-04-03T13:05:52;4.57;;;2.30;;
10201;SDS011;5143;42.584;23.164;2023-04-03T13:08:21;3.13;;;1.73;;
10201;SDS011;5143;42.584;23.164;2023-04-03T13:10:51;4.00;;;1.70;;
10201;SDS011;5143;42.584;23.164;2023-04-03T13:13:23;2.27;;;1.50;;
10201;SDS011;5143;42.584;23.164;2023-04-03T13:15:51;2.47;;;1.40;;
10201;SDS011;5143;42.584;23.164;2023-04-03T13:18:21;3.10;;;1.50;;
10201;SDS011;5143;42.584;23.164;2023-04-03T13:20:49;1.60;;;1.00;;
10201;SDS011;5143;42.584;23.164;2023-04-03T13:23:17;1.67;;;0.90;;
10201;SDS011;5143;42.584;23.164;2023-04-03T13:25:48;1.10;;;0.70;;
10201;SDS011;5143;42.584;23.164;2023-04-03T13:28:18;1.23;;;0.70;;
10201;SDS011;5143;42.584;23.164;2023-04-03T13:30:57;2.33;;;0.80;;
10201;SDS011;5143;42.584;23.164;2023-04-03T13:33:30;1.97;;;1.30;;
10201;SDS011;5143;42.584;23.164;2023-04-03T13:36:04;18.00;;;16.13;;
10201;SDS011;5143;42.584;23.164;2023-04-03T13:38:32;5.40;;;4.87;;
10201;SDS011;5143;42.584;23.164;2023-04-03T13:41:02;3.60;;;2.37;;
10201;SDS011;5143;42.584;23.164;2023-04-03T13:43:32;4.17;;;3.23;;
10201;SDS011;5143;42.584;23.164;2023-04-03T13:46:04;4.03;;;3.00;;
10201;SDS011;5143;42.584;23.164;2023-04-03T13:48:49;2.90;;;2.17;;
10201;SDS011;5143;42.584;23.164;2023-04-03T13:51:18;6.03;;;4.60;;
10201;SDS011;5143;42.584;23.164;2023-04-03T13:53:48;2.83;;;1.87;;
10201;SDS011;5143;42.584;23.164;2023-04-03T13:56:24;5.00;;;2.70;;
10201;SDS011;5143;42.584;23.164;2023-04-03T13:58:58;4.73;;;2.10;;
10201;SDS011;5143;42.584;23.164;2023-04-03T14:04:20;2.67;;;2.03;;
10201;SDS011;5143;42.584;23.164;2023-04-03T14:06:49;1.47;;;1.23;;
10201;SDS011;5143;42.584;23.164;2023-04-03T14:09:17;1.20;;;0.97;;
10201;SDS011;5143;42.584;23.164;2023-04-03T14:11:46;2.57;;;1.37;;
10201;SDS011;5143;42.584;23.164;2023-04-03T14:14:14;1.63;;;1.37;;
10201;SDS011;5143;42.584;23.164;2023-04-03T14:16:44;2.30;;;1.50;;
10201;SDS011;5143;42.584;23.164;2023-04-03T14:19:18;2.57;;;1.57;;
10201;SDS011;5143;42.584;23.164;2023-04-03T14:21:47;8.93;;;7.00;;
10201;SDS011;5143;42.584;23.164;2023-04-03T14:24:16;3.87;;;2.67;;
10201;SDS011;5143;42.584;23.164;2023-04-03T14:26:44;4.27;;;3.10;;
10201;SDS011;5143;42.584;23.164;2023-04-03T14:29:12;2.17;;;1.80;;
10201;SDS011;5143;42.584;23.164;2023-04-03T14:31:40;8.87;;;7.07;;
10201;SDS011;5143;42.584;23.164;2023-04-03T14:34:10;3.90;;;2.63;;
10201;SDS011;5143;42.584;23.164;2023-04-03T14:36:39;4.00;;;2.40;;
10201;SDS011;5143;42.584;23.164;2023-04-03T14:39:08;2.83;;;2.03;;
10201;SDS011;5143;42.584;23.164;2023-04-03T14:41:38;6.07;;;4.23;;
10201;SDS011;5143;42.584;23.164;2023-04-03T14:44:05;3.97;;;2.93;;
10201;SDS011;5143;42.584;23.164;2023-04-03T14:46:32;3.33;;;2.67;;
10201;SDS011;5143;42.584;23.164;2023-04-03T14:49:01;12.03;;;8.73;;
10201;SDS011;5143;42.584;23.164;2023-04-03T14:51:32;9.77;;;8.77;;
10201;SDS011;5143;42.584;23.164;2023-04-03T14:54:01;11.53;;;10.33;;
10201;SDS011;5143;42.584;23.164;2023-04-03T14:56:28;10.80;;;7.97;;
10201;SDS011;5143;42.584;23.164;2023-04-03T14:58:57;6.87;;;3.77;;
10201;SDS011;5143;42.584;23.164;2023-04-03T15:01:25;17.13;;;10.80;;
10201;SDS011;5143;42.584;23.164;2023-04-03T15:03:54;9.67;;;6.10;;
10201;SDS011;5143;42.584;23.164;2023-04-03T15:06:21;6.00;;;4.40;;
10201;SDS011;5143;42.584;23.164;2023-04-03T15:08:48;5.87;;;3.10;;
10201;SDS011;5143;42.584;23.164;2023-04-03T15:11:17;5.97;;;4.87;;
10201;SDS011;5143;42.584;23.164;2023-04-03T15:13:44;17.23;;;12.17;;
10201;SDS011;5143;42.584;23.164;2023-04-03T15:16:12;7.27;;;5.20;;
10201;SDS011;5143;42.584;23.164;2023-04-03T15:18:43;8.53;;;6.27;;
10201;SDS011;5143;42.584;23.164;2023-04-03T15:21:11;5.77;;;4.23;;
10201;SDS011;5143;42.584;23.164;2023-04-03T15:23:39;7.47;;;5.37;;
10201;SDS011;5143;42.584;23.164;2023-04-03T15:26:07;11.67;;;8.23;;
10201;SDS011;5143;42.584;23.164;2023-04-03T15:28:36;11.33;;;6.93;;
10201;SDS011;5143;42.584;23.164;2023-04-03T15:31:05;13.03;;;9.73;;
10201;SDS011;5143;42.584;23.164;2023-04-03T15:33:33;5.77;;;4.03;;